Time;durP1;ratioP1;P1;durP2;ratioP2;P2;SDS_P1;SDS_P2;PMS_P1;PMS_P2;Temp;Humidity;BMP_temperature;BMP_pressure;BME280_temperature;BME280_humidity;BME280_pressure;Samples;Min_cycle;Max_cycle;Signal;HPM_P1;HPM_P2
2023/04/18 00:02:16;;;;;;;18.53;16.63;;;8.40;99.90;;;;;;5114547;28;20973;-76
2023/04/18 00:04:45;;;;;;;18.90;17.20;;;8.40;99.90;;;;;;5096273;28;20876;-76
2023/04/18 00:07:15;;;;;;;19.03;17.27;;;8.40;99.90;;;;;;5096590;28;20459;-76
2023/04/18 00:09:43;;;;;;;19.87;17.00;;;8.40;99.90;;;;;;5113097;28;20562;-76
2023/04/18 00:12:13;;;;;;;19.30;17.50;;;8.40;99.90;;;;;;5096728;28;20482;-76
2023/04/18 00:14:42;;;;;;;19.80;18.00;;;8.40;99.90;;;;;;5096186;28;20819;-75
2023/04/18 00:17:12;;;;;;;19.50;17.80;;;8.30;99.90;;;;;;5095999;28;20482;-75
2023/04/18 00:19:42;;;;;;;19.00;17.23;;;8.30;99.90;;;;;;5095896;28;20454;-75
2023/04/18 00:22:11;;;;;;;19.40;17.67;;;8.30;99.90;;;;;;5095817;28;20459;-75
2023/04/18 00:24:40;;;;;;;19.80;17.90;;;8.30;99.90;;;;;;5095917;28;20451;-75
2023/04/18 00:27:08;;;;;;;20.10;18.20;;;8.30;99.90;;;;;;5114111;28;20450;-75
2023/04/18 00:29:39;;;;;;;20.80;18.80;;;8.20;99.90;;;;;;5095649;28;20467;-75
2023/04/18 00:32:07;;;;;;;20.87;18.97;;;8.20;99.90;;;;;;5095712;28;20465;-75
2023/04/18 00:34:36;;;;;;;20.03;17.97;;;8.20;99.90;;;;;;5095694;28;20456;-75
2023/04/18 00:37:04;;;;;;;20.40;18.50;;;8.20;99.90;;;;;;5095621;28;20453;-75
2023/04/18 00:39:33;;;;;;;20.87;18.83;;;8.20;99.90;;;;;;5096045;28;20457;-75
2023/04/18 00:42:02;;;;;;;20.97;18.87;;;8.20;99.90;;;;;;5095567;28;20911;-76
2023/04/18 00:44:31;;;;;;;19.60;17.70;;;8.20;99.90;;;;;;5095594;28;20824;-75
2023/04/18 00:47:00;;;;;;;19.97;17.87;;;8.20;99.90;;;;;;5095497;28;20465;-75
2023/04/18 00:49:29;;;;;;;18.50;16.80;;;8.20;99.90;;;;;;5095527;28;20458;-75
2023/04/18 00:51:57;;;;;;;19.50;17.70;;;8.20;99.90;;;;;;5095362;28;20842;-75
2023/04/18 00:54:27;;;;;;;20.37;18.33;;;8.20;99.90;;;;;;5095345;28;20451;-75
2023/04/18 00:56:55;;;;;;;19.50;17.63;;;8.20;99.90;;;;;;5095426;28;20459;-75
2023/04/18 00:59:23;;;;;;;17.70;16.00;;;8.20;99.90;;;;;;5095327;28;20811;-75
2023/04/18 01:01:51;;;;;;;17.47;15.80;;;8.20;99.90;;;;;;5095286;28;20471;-75
2023/04/18 01:04:22;;;;;;;17.10;15.50;;;8.20;99.90;;;;;;5095355;28;20447;-75
2023/04/18 01:06:50;;;;;;;15.90;14.40;;;8.20;99.90;;;;;;5112232;28;20482;-75
2023/04/18 01:09:19;;;;;;;16.07;14.57;;;8.20;99.90;;;;;;5095229;28;20445;-76
2023/04/18 01:11:48;;;;;;;15.10;13.70;;;8.20;99.90;;;;;;5094387;28;20553;-75
2023/04/18 01:14:18;;;;;;;14.67;13.27;;;8.20;99.90;;;;;;5095958;28;20473;-75
2023/04/18 01:16:47;;;;;;;13.80;12.50;;;8.10;99.90;;;;;;5096019;28;20435;-76
2023/04/18 01:19:16;;;;;;;13.13;11.90;;;8.20;99.90;;;;;;5112178;28;20466;-76
2023/04/18 01:21:46;;;;;;;14.20;12.80;;;8.10;99.90;;;;;;5094993;28;20447;-76
2023/04/18 01:24:17;;;;;;;14.00;12.70;;;8.10;99.90;;;;;;5095128;28;20443;-75
2023/04/18 01:26:47;;;;;;;14.00;12.40;;;8.10;99.90;;;;;;5095288;28;20926;-76
2023/04/18 01:29:15;;;;;;;13.50;12.20;;;8.10;99.90;;;;;;5113555;28;20462;-75
2023/04/18 01:31:43;;;;;;;14.50;13.10;;;8.10;99.90;;;;;;5095082;28;20474;-76
2023/04/18 01:34:16;;;;;;;15.37;13.87;;;8.10;99.90;;;;;;5095049;28;20492;-75
2023/04/18 01:36:45;;;;;;;15.10;13.63;;;8.10;99.90;;;;;;5094909;28;20824;-76
2023/04/18 01:39:14;;;;;;;15.70;14.20;;;8.10;99.90;;;;;;5095004;28;20803;-75
2023/04/18 01:41:43;;;;;;;18.00;16.17;;;8.10;99.90;;;;;;5094844;28;20438;-75
2023/04/18 01:44:11;;;;;;;19.23;17.03;;;8.10;99.90;;;;;;5111822;28;20957;-75
2023/04/18 01:46:39;;;;;;;19.63;17.93;;;8.10;99.90;;;;;;5094833;28;20446;-76
2023/04/18 01:49:08;;;;;;;20.33;18.53;;;8.00;99.90;;;;;;5094983;28;20447;-75
2023/04/18 01:51:37;;;;;;;19.67;17.67;;;8.10;99.90;;;;;;5112867;28;20516;-75
2023/04/18 01:54:06;;;;;;;21.10;19.20;;;8.00;99.90;;;;;;5094738;28;20450;-76
2023/04/18 01:56:35;;;;;;;21.90;19.70;;;8.00;99.90;;;;;;5095063;28;20527;-76
2023/04/18 01:59:03;;;;;;;22.10;19.80;;;8.00;99.90;;;;;;5094737;28;20444;-75
2023/04/18 02:01:31;;;;;;;24.53;21.93;;;8.00;99.90;;;;;;5094514;28;20447;-76
2023/04/18 02:03:59;;;;;;;25.70;23.30;;;8.00;99.90;;;;;;5094709;28;20941;-75
2023/04/18 02:06:28;;;;;;;23.63;21.47;;;8.00;99.90;;;;;;5094697;28;20819;-75
2023/04/18 02:08:56;;;;;;;24.80;22.50;;;8.00;99.90;;;;;;5094688;28;20438;-75
2023/04/18 02:11:25;;;;;;;23.70;21.50;;;7.90;99.90;;;;;;5094715;28;20472;-75
2023/04/18 02:13:54;;;;;;;23.97;21.83;;;7.90;99.90;;;;;;5094588;28;20550;-75
2023/04/18 02:16:23;;;;;;;24.50;22.10;;;7.90;99.90;;;;;;5094529;28;21022;-76
2023/04/18 02:18:51;;;;;;;23.33;21.10;;;7.90;99.90;;;;;;5094578;28;20444;-75
2023/04/18 02:21:20;;;;;;;22.93;20.73;;;7.90;99.90;;;;;;5094455;28;20450;-75
2023/04/18 02:23:49;;;;;;;24.40;22.00;;;7.90;99.90;;;;;;5097233;28;20469;-75
2023/04/18 02:26:18;;;;;;;22.17;20.17;;;7.90;99.90;;;;;;5098252;28;20545;-75
2023/04/18 02:28:46;;;;;;;23.07;20.87;;;7.90;99.90;;;;;;5098282;28;20816;-75
2023/04/18 02:31:15;;;;;;;23.53;21.33;;;7.80;99.90;;;;;;5115123;28;20551;-75
2023/04/18 02:33:45;;;;;;;18.40;16.50;;;7.80;99.90;;;;;;5098100;28;20493;-75
2023/04/18 02:36:13;;;;;;;23.50;21.40;;;7.80;99.90;;;;;;5098254;28;20457;-75
2023/04/18 02:38:43;;;;;;;23.40;21.00;;;7.80;99.90;;;;;;5098500;28;20845;-75
2023/04/18 02:41:16;;;;;;;24.10;21.80;;;7.80;99.90;;;;;;5097875;28;20445;-75
2023/04/18 02:43:44;;;;;;;23.50;21.27;;;7.80;99.90;;;;;;5097949;28;20519;-75
2023/04/18 02:46:16;;;;;;;25.13;22.50;;;7.80;99.90;;;;;;5098624;28;20520;-75
2023/04/18 02:48:47;;;;;;;24.17;21.97;;;7.80;99.90;;;;;;5098805;28;20900;-75
2023/04/18 02:51:18;;;;;;;24.57;22.37;;;7.80;99.90;;;;;;5097727;28;20468;-75
2023/04/18 02:53:47;;;;;;;24.87;22.47;;;7.80;99.90;;;;;;5098257;28;20893;-75
2023/04/18 02:56:16;;;;;;;23.90;21.70;;;7.80;99.90;;;;;;5097529;28;20498;-75
2023/04/18 02:59:03;;;;;;;24.50;22.30;;;7.80;99.90;;;;;;5116155;28;20426;-75
2023/04/18 03:02:06;;;;;;;25.00;22.60;;;7.80;99.90;;;;;;5098218;28;20889;-75
2023/04/18 03:04:36;;;;;;;26.27;23.47;;;7.80;99.90;;;;;;5098055;28;20522;-75
2023/04/18 03:07:07;;;;;;;24.80;22.47;;;7.80;99.90;;;;;;5097488;28;20623;-75
2023/04/18 03:09:38;;;;;;;26.83;24.30;;;7.80;99.90;;;;;;5097373;28;20455;-75
2023/04/18 03:12:16;;;;;;;24.37;22.00;;;7.80;99.90;;;;;;5097239;28;20583;-75
2023/04/18 03:14:45;;;;;;;25.07;22.97;;;7.80;99.90;;;;;;5097495;28;20468;-75
2023/04/18 03:17:16;;;;;;;27.77;25.10;;;7.80;99.90;;;;;;5097297;28;20469;-75
2023/04/18 03:19:48;;;;;;;27.70;24.90;;;7.80;99.90;;;;;;5097178;28;20443;-75
2023/04/18 03:22:19;;;;;;;27.13;24.53;;;7.70;99.90;;;;;;5097221;28;20471;-75
2023/04/18 03:24:56;;;;;;;25.47;23.13;;;7.70;99.90;;;;;;5097044;28;20446;-75
2023/04/18 03:27:39;;;;;;;27.90;25.27;;;7.70;99.90;;;;;;5097048;28;20442;-75
2023/04/18 03:30:09;;;;;;;36.97;25.83;;;7.70;99.90;;;;;;5097003;28;20467;-75
2023/04/18 03:32:41;;;;;;;29.17;26.40;;;7.70;99.90;;;;;;5096867;28;20486;-75
2023/04/18 03:35:10;;;;;;;27.93;25.27;;;7.70;99.90;;;;;;5096521;28;20439;-75
2023/04/18 03:37:38;;;;;;;30.37;27.43;;;7.70;99.90;;;;;;5097287;28;20451;-75
2023/04/18 03:40:09;;;;;;;29.63;26.73;;;7.70;99.90;;;;;;5096711;28;20478;-75
2023/04/18 03:42:38;;;;;;;30.97;27.93;;;7.70;99.90;;;;;;5096740;28;21053;-75
2023/04/18 03:45:07;;;;;;;30.57;27.70;;;7.70;99.90;;;;;;5096554;28;20950;-75
2023/04/18 03:47:36;;;;;;;31.80;28.70;;;7.70;99.90;;;;;;5096883;28;20508;-75
2023/04/18 03:50:07;;;;;;;32.40;29.10;;;7.60;99.90;;;;;;5096508;28;20964;-75
2023/04/18 03:52:35;;;;;;;32.03;29.03;;;7.60;99.90;;;;;;5096297;28;20830;-75
2023/04/18 03:55:05;;;;;;;32.30;29.20;;;7.60;99.90;;;;;;5096459;28;21018;-75
2023/04/18 03:57:34;;;;;;;33.80;30.53;;;7.60;99.90;;;;;;5096328;28;20464;-75
2023/04/18 04:00:07;;;;;;;33.37;30.10;;;7.60;99.90;;;;;;5096371;28;20533;-75
2023/04/18 04:02:42;;;;;;;35.10;31.90;;;7.60;99.90;;;;;;5114583;28;20452;-75
2023/04/18 04:05:18;;;;;;;33.27;30.20;;;7.50;99.90;;;;;;5096427;28;20496;-75
2023/04/18 04:07:48;;;;;;;35.93;32.53;;;7.60;99.90;;;;;;5096736;28;20849;-75
2023/04/18 04:10:16;;;;;;;34.80;31.43;;;7.50;99.90;;;;;;5096230;28;20957;-75
2023/04/18 04:12:44;;;;;;;37.43;33.83;;;7.50;99.90;;;;;;5096042;28;20829;-75
2023/04/18 04:15:12;;;;;;;37.90;34.23;;;7.50;99.90;;;;;;5095973;28;20473;-75
2023/04/18 04:17:47;;;;;;;38.27;34.30;;;7.50;99.90;;;;;;5096076;28;20430;-75
2023/04/18 04:20:22;;;;;;;36.67;33.13;;;7.50;99.90;;;;;;5096120;28;20494;-75
2023/04/18 04:22:57;;;;;;;37.80;34.00;;;7.50;99.90;;;;;;5096115;28;20552;-75
2023/04/18 04:25:28;;;;;;;37.97;34.30;;;7.50;99.90;;;;;;5096913;28;20508;-76
2023/04/18 04:28:01;;;;;;;40.50;36.37;;;7.50;99.90;;;;;;5095952;28;20507;-75
2023/04/18 04:30:33;;;;;;;39.73;35.67;;;7.50;99.90;;;;;;5095928;28;20450;-75
2023/04/18 04:33:03;;;;;;;40.50;36.60;;;7.50;99.90;;;;;;5095723;28;20482;-75
2023/04/18 04:35:33;;;;;;;40.03;36.07;;;7.50;99.90;;;;;;5095719;28;20446;-75
2023/04/18 04:38:01;;;;;;;38.30;34.70;;;7.50;99.90;;;;;;5095716;28;20792;-75
2023/04/18 04:40:37;;;;;;;37.57;33.90;;;7.50;99.90;;;;;;5096404;28;20487;-75
2023/04/18 04:43:11;;;;;;;38.70;35.00;;;7.50;99.90;;;;;;5095567;28;20960;-75
2023/04/18 04:45:41;;;;;;;40.57;36.77;;;7.50;99.90;;;;;;5095091;28;20438;-75
2023/04/18 04:48:10;;;;;;;39.87;35.83;;;7.50;99.90;;;;;;5095404;28;20458;-75
2023/04/18 04:50:41;;;;;;;37.83;34.37;;;7.50;99.90;;;;;;5095367;28;20434;-75
2023/04/18 04:53:11;;;;;;;38.30;34.80;;;7.50;99.90;;;;;;5112116;28;21040;-75
2023/04/18 04:55:40;;;;;;;39.13;35.07;;;7.50;99.90;;;;;;5096040;28;20789;-75
2023/04/18 04:58:08;;;;;;;37.80;33.90;;;7.50;99.90;;;;;;5095420;28;20458;-75
2023/04/18 05:00:55;;;;;;;38.17;34.40;;;7.50;99.90;;;;;;5095172;28;20455;-75
2023/04/18 05:03:23;;;;;;;38.87;35.00;;;7.50;99.90;;;;;;5095252;28;21044;-75
2023/04/18 05:05:53;;;;;;;36.93;33.43;;;7.50;99.90;;;;;;5095375;28;20442;-76
2023/04/18 05:08:21;;;;;;;34.60;31.27;;;7.50;99.90;;;;;;5113561;28;20517;-76
2023/04/18 05:10:50;;;;;;;35.97;32.47;;;7.50;99.90;;;;;;5095254;28;20447;-76
2023/04/18 05:13:18;;;;;;;37.03;33.47;;;7.40;99.90;;;;;;5095192;28;20840;-75
2023/04/18 05:15:46;;;;;;;36.37;32.83;;;7.50;99.90;;;;;;5113738;28;20437;-76
2023/04/18 05:18:15;;;;;;;36.37;33.00;;;7.50;99.90;;;;;;5116319;28;20435;-76
2023/04/18 05:20:43;;;;;;;36.17;32.60;;;7.50;99.90;;;;;;5098354;28;20498;-77
2023/04/18 05:23:12;;;;;;;34.60;31.00;;;7.50;99.90;;;;;;5098671;28;20458;-77
2023/04/18 05:25:41;;;;;;;37.20;33.17;;;7.50;99.90;;;;;;5098497;28;20459;-77
2023/04/18 05:28:09;;;;;;;37.43;33.73;;;7.50;99.90;;;;;;5098072;28;20853;-76
2023/04/18 05:30:37;;;;;;;36.17;32.60;;;7.50;99.90;;;;;;5098543;28;20451;-77
2023/04/18 05:33:05;;;;;;;36.57;32.97;;;7.50;99.90;;;;;;5098121;28;20477;-77
2023/04/18 05:35:34;;;;;;;35.10;31.70;;;7.60;99.90;;;;;;5096589;28;20468;-77
2023/04/18 05:38:02;;;;;;;35.30;31.80;;;7.50;99.90;;;;;;5112046;28;20452;-77
2023/04/18 05:40:31;;;;;;;37.37;33.47;;;7.50;99.90;;;;;;5094800;28;20450;-77
2023/04/18 05:43:00;;;;;;;35.93;32.33;;;7.50;99.90;;;;;;5094799;28;20566;-77
2023/04/18 05:45:28;;;;;;;34.03;30.63;;;7.60;99.90;;;;;;5111750;28;20437;-77
2023/04/18 05:47:56;;;;;;;34.23;30.83;;;7.60;99.90;;;;;;5094810;28;20524;-77
2023/04/18 05:50:25;;;;;;;35.67;32.27;;;7.60;99.90;;;;;;5094815;28;20542;-77
2023/04/18 05:52:53;;;;;;;36.13;32.10;;;7.60;99.90;;;;;;5094639;28;20478;-77
2023/04/18 05:55:21;;;;;;;35.17;31.77;;;7.60;99.90;;;;;;5094755;28;20449;-77
2023/04/18 05:57:51;;;;;;;35.40;31.70;;;7.60;99.90;;;;;;5096011;28;20444;-76
2023/04/18 06:00:20;;;;;;;34.93;31.43;;;7.60;99.90;;;;;;5117079;28;20885;-77
2023/04/18 06:02:48;;;;;;;33.20;29.80;;;7.60;99.90;;;;;;5116863;28;20488;-76
2023/04/18 06:05:17;;;;;;;34.17;30.50;;;7.70;99.90;;;;;;5098656;28;20450;-76
2023/04/18 06:07:46;;;;;;;34.97;31.50;;;7.70;99.90;;;;;;5117445;28;20534;-77
2023/04/18 06:10:15;;;;;;;32.80;29.53;;;7.70;99.90;;;;;;5098548;28;20510;-77
2023/04/18 06:12:43;;;;;;;36.20;32.80;;;7.80;99.90;;;;;;5098312;28;20569;-76
2023/04/18 06:15:13;;;;;;;33.40;29.97;;;7.80;99.90;;;;;;5098417;28;20496;-76
2023/04/18 06:17:41;;;;;;;36.13;32.63;;;7.80;99.90;;;;;;5116624;28;20460;-77
2023/04/18 06:20:10;;;;;;;33.57;30.17;;;7.80;99.90;;;;;;5098341;28;20478;-77
2023/04/18 06:22:38;;;;;;;35.67;32.23;;;7.90;99.90;;;;;;5116436;28;20822;-77
2023/04/18 06:25:08;;;;;;;33.93;30.43;;;7.90;99.90;;;;;;5098101;28;20442;-76
2023/04/18 06:27:37;;;;;;;32.30;28.93;;;7.90;99.90;;;;;;5098197;28;20798;-76
2023/04/18 06:30:06;;;;;;;36.33;32.93;;;8.00;99.90;;;;;;5098061;28;20453;-76
2023/04/18 06:32:36;;;;;;;33.47;30.10;;;8.20;99.90;;;;;;5098034;28;20481;-77
2023/04/18 06:35:05;;;;;;;32.67;29.50;;;8.50;99.90;;;;;;5097922;28;20535;-76
2023/04/18 06:37:33;;;;;;;33.73;30.43;;;8.70;99.90;;;;;;5116275;28;20792;-77
2023/04/18 06:40:01;;;;;;;31.40;28.40;;;9.00;99.90;;;;;;5097918;28;20470;-77
2023/04/18 06:42:29;;;;;;;30.40;27.40;;;9.30;99.90;;;;;;5097854;28;20500;-77
2023/04/18 06:44:57;;;;;;;28.57;25.83;;;9.50;99.90;;;;;;5097839;28;20443;-77
2023/04/18 06:47:25;;;;;;;29.50;26.33;;;9.70;99.90;;;;;;5097825;28;20440;-77
2023/04/18 06:49:55;;;;;;;26.83;24.30;;;10.00;99.90;;;;;;5098045;28;20439;-77
2023/04/18 06:52:23;;;;;;;26.63;24.10;;;10.10;99.90;;;;;;5097725;28;20459;-77
2023/04/18 06:54:51;;;;;;;25.23;22.73;;;10.30;99.90;;;;;;5097727;28;20477;-77
2023/04/18 06:57:19;;;;;;;25.07;22.67;;;10.40;99.90;;;;;;5097829;28;20447;-77
2023/04/18 06:59:48;;;;;;;26.10;23.60;;;10.60;99.90;;;;;;5097548;28;20444;-77
2023/04/18 07:02:16;;;;;;;23.53;21.33;;;10.70;99.90;;;;;;5098021;28;20479;-77
2023/04/18 07:04:44;;;;;;;24.43;21.93;;;10.80;99.90;;;;;;5097667;28;20442;-77
2023/04/18 07:07:14;;;;;;;24.30;21.97;;;11.00;99.90;;;;;;5114990;28;20458;-77
2023/04/18 07:09:42;;;;;;;22.40;20.20;;;11.10;99.90;;;;;;5096972;28;20534;-77
2023/04/18 07:12:10;;;;;;;22.37;19.60;;;11.30;99.90;;;;;;5097860;28;20830;-77
2023/04/18 07:14:39;;;;;;;24.13;21.63;;;11.40;99.90;;;;;;5097521;28;20468;-77
2023/04/18 07:17:07;;;;;;;22.20;18.70;;;11.50;99.90;;;;;;5097559;28;20440;-77
2023/04/18 07:19:35;;;;;;;19.57;17.70;;;11.60;99.90;;;;;;5097599;28;20455;-77
2023/04/18 07:22:03;;;;;;;22.73;20.37;;;11.70;99.90;;;;;;5097356;28;21042;-77
2023/04/18 07:24:33;;;;;;;21.57;19.30;;;11.70;99.90;;;;;;5114655;28;20455;-77
2023/04/18 07:27:02;;;;;;;21.23;19.23;;;11.90;99.90;;;;;;5116260;28;20435;-77
2023/04/18 07:29:30;;;;;;;23.07;20.50;;;12.00;99.90;;;;;;5116131;28;20444;-78
2023/04/18 07:31:59;;;;;;;20.87;18.77;;;12.10;99.90;;;;;;5115510;28;21057;-77
2023/04/18 07:34:28;;;;;;;22.17;19.97;;;12.20;99.90;;;;;;5097294;28;20463;-77
2023/04/18 07:37:00;;;;;;;21.80;18.63;;;12.30;99.90;;;;;;5097054;28;20496;-77
2023/04/18 07:39:30;;;;;;;19.47;17.60;;;12.40;99.90;;;;;;5097011;28;20439;-77
2023/04/18 07:42:00;;;;;;;21.00;18.60;;;12.50;99.90;;;;;;5097252;28;20462;-77
2023/04/18 07:44:28;;;;;;;21.00;17.90;;;12.50;99.90;;;;;;5097074;28;20538;-77
2023/04/18 07:46:56;;;;;;;19.70;17.70;;;12.50;99.90;;;;;;5115723;28;20442;-78
2023/04/18 07:49:25;;;;;;;18.53;16.63;;;12.50;99.90;;;;;;5098171;28;20981;-78
2023/04/18 07:51:53;;;;;;;17.77;16.10;;;12.60;99.90;;;;;;5116645;28;20455;-77
2023/04/18 07:54:21;;;;;;;20.47;17.13;;;12.60;99.90;;;;;;5115090;28;20463;-77
2023/04/18 07:56:49;;;;;;;18.23;16.23;;;12.60;99.90;;;;;;5114836;28;20958;-77
2023/04/18 07:59:19;;;;;;;17.83;16.00;;;12.70;99.90;;;;;;5115329;28;20439;-77
2023/04/18 08:01:47;;;;;;;16.73;15.10;;;12.80;99.90;;;;;;5096669;28;20816;-77
2023/04/18 08:04:15;;;;;;;15.80;13.93;;;12.90;99.90;;;;;;5096929;28;20448;-77
2023/04/18 08:06:43;;;;;;;14.67;13.20;;;12.90;99.90;;;;;;5096523;28;20551;-77
2023/04/18 08:09:11;;;;;;;14.37;12.97;;;12.90;99.90;;;;;;5096795;28;20993;-76
2023/04/18 08:11:42;;;;;;;14.67;13.30;;;13.00;99.90;;;;;;5114684;28;20481;-77
2023/04/18 08:14:10;;;;;;;14.17;12.77;;;13.00;99.90;;;;;;5114804;28;20824;-79
2023/04/18 08:16:40;;;;;;;13.33;12.03;;;13.10;99.90;;;;;;5096295;28;20447;-77
2023/04/18 08:19:08;;;;;;;12.50;11.17;;;13.00;99.90;;;;;;5096245;28;20448;-77
2023/04/18 08:21:38;;;;;;;14.53;13.03;;;13.00;99.90;;;;;;5113161;28;20444;-77
2023/04/18 08:24:06;;;;;;;15.27;13.67;;;13.10;99.90;;;;;;5096375;28;20448;-78
2023/04/18 08:26:35;;;;;;;15.47;12.80;;;13.20;99.90;;;;;;5096355;28;20898;-77
2023/04/18 08:29:03;;;;;;;15.30;13.80;;;13.20;99.90;;;;;;5096095;28;20443;-76
2023/04/18 08:31:31;;;;;;;13.43;12.23;;;13.30;99.90;;;;;;5114895;28;20431;-77
2023/04/18 08:34:01;;;;;;;13.80;12.50;;;13.40;99.90;;;;;;5096153;28;20459;-78
2023/04/18 08:36:32;;;;;;;13.60;12.20;;;13.50;99.90;;;;;;5114887;28;20802;-77
2023/04/18 08:39:00;;;;;;;13.30;11.70;;;13.50;99.90;;;;;;5114366;28;20450;-77
2023/04/18 08:41:30;;;;;;;15.20;13.70;;;13.60;99.90;;;;;;5096099;28;20446;-77
2023/04/18 08:43:58;;;;;;;13.97;12.57;;;13.60;99.90;;;;;;5096162;28;20449;-78
2023/04/18 08:46:28;;;;;;;14.87;13.00;;;13.60;99.90;;;;;;5095764;28;20450;-76
2023/04/18 08:48:58;;;;;;;13.47;11.73;;;13.60;99.90;;;;;;5096170;28;20448;-77
2023/04/18 08:51:32;;;;;;;13.60;11.60;;;13.60;99.90;;;;;;5095742;28;20450;-77
2023/04/18 08:54:03;;;;;;;12.40;11.10;;;13.60;99.90;;;;;;5095638;28;20457;-77
2023/04/18 08:56:31;;;;;;;12.90;11.70;;;13.60;99.90;;;;;;5096148;28;20436;-77
2023/04/18 08:58:59;;;;;;;14.60;13.10;;;13.60;99.90;;;;;;5113837;28;20530;-77
2023/04/18 09:01:51;;;;;;;12.13;10.90;;;13.60;99.90;;;;;;5114238;28;20459;-77
2023/04/18 09:04:34;;;;;;;11.13;10.00;;;13.60;99.90;;;;;;5113782;28;20412;-77
2023/04/18 09:07:05;;;;;;;10.73;9.47;;;13.50;99.90;;;;;;5095508;28;20481;-77
2023/04/18 09:09:44;;;;;;;9.77;8.77;;;13.50;99.90;;;;;;5095432;28;20534;-77
2023/04/18 09:12:14;;;;;;;9.40;8.60;;;13.50;99.90;;;;;;5095441;28;20463;-77
2023/04/18 09:14:44;;;;;;;9.57;8.40;;;13.60;99.90;;;;;;5095478;28;20464;-77
2023/04/18 09:17:14;;;;;;;9.73;7.07;;;13.60;99.90;;;;;;5095308;28;20902;-77
2023/04/18 09:19:47;;;;;;;8.90;7.60;;;13.60;99.70;;;;;;5113502;28;20432;-77
2023/04/18 09:22:17;;;;;;;8.13;7.23;;;13.60;99.50;;;;;;5095276;28;20462;-77
2023/04/18 09:24:52;;;;;;;8.80;6.90;;;13.70;99.60;;;;;;5113495;28;20461;-77
2023/04/18 09:27:21;;;;;;;8.60;7.30;;;13.60;99.30;;;;;;5095229;28;20434;-77
2023/04/18 09:29:53;;;;;;;10.00;7.70;;;13.60;99.20;;;;;;5113383;28;20431;-77
2023/04/18 09:32:26;;;;;;;9.70;8.30;;;13.60;99.30;;;;;;5095695;28;20466;-77
2023/04/18 09:34:57;;;;;;;8.13;7.13;;;13.60;99.20;;;;;;5099250;28;21050;-77
2023/04/18 09:37:27;;;;;;;8.30;7.47;;;13.70;99.10;;;;;;5099262;28;20446;-77
2023/04/18 09:39:55;;;;;;;7.93;7.13;;;13.70;99.00;;;;;;5117684;28;20446;-77
2023/04/18 09:42:24;;;;;;;9.43;7.80;;;13.80;99.10;;;;;;5117418;28;20459;-76
2023/04/18 09:45:04;;;;;;;7.17;6.47;;;13.80;99.10;;;;;;5099218;28;20508;-76
2023/04/18 09:47:35;;;;;;;8.43;6.87;;;13.90;99.00;;;;;;5117832;28;20891;-77
2023/04/18 09:50:04;;;;;;;8.33;5.67;;;14.00;99.00;;;;;;5117834;28;20423;-76
2023/04/18 09:52:35;;;;;;;6.77;5.77;;;14.00;99.00;;;;;;5099391;28;20463;-77
2023/04/18 09:55:05;;;;;;;7.50;4.90;;;14.10;99.00;;;;;;5098965;28;20474;-76
2023/04/18 09:57:34;;;;;;;7.20;5.90;;;14.10;98.80;;;;;;5099030;28;20454;-77
2023/04/18 10:00:12;;;;;;;5.53;4.63;;;14.10;98.70;;;;;;5098951;28;20478;-76
2023/04/18 10:02:48;;;;;;;7.23;4.70;;;14.10;98.70;;;;;;5098974;28;20977;-76
2023/04/18 10:05:18;;;;;;;5.93;4.00;;;14.10;98.80;;;;;;5099197;28;20435;-77
2023/04/18 10:07:50;;;;;;;7.73;4.63;;;14.30;98.80;;;;;;5117290;28;20515;-76
2023/04/18 10:10:18;;;;;;;5.33;3.73;;;14.20;98.50;;;;;;5098791;28;20451;-77
2023/04/18 10:12:49;;;;;;;5.23;4.13;;;14.20;98.30;;;;;;5117142;28;20969;-77
2023/04/18 10:15:19;;;;;;;4.90;3.90;;;14.10;98.30;;;;;;5098531;28;20462;-77
2023/04/18 10:17:53;;;;;;;5.17;3.77;;;14.00;98.30;;;;;;5098560;28;20493;-77
2023/04/18 10:20:25;;;;;;;5.53;3.63;;;14.00;98.20;;;;;;5117115;28;20419;-77
2023/04/18 10:22:56;;;;;;;5.20;3.90;;;14.00;98.20;;;;;;5116627;28;20454;-77
2023/04/18 10:25:51;;;;;;;4.87;3.80;;;13.90;98.10;;;;;;5098457;28;20525;-76
2023/04/18 10:28:20;;;;;;;5.87;4.20;;;13.90;98.00;;;;;;5052306;28;20443;-77
2023/04/18 10:30:55;;;;;;;5.47;3.83;;;14.00;98.00;;;;;;5116543;28;20435;-76
2023/04/18 10:33:29;;;;;;;4.80;3.47;;;13.90;97.90;;;;;;5098568;28;20470;-77
2023/04/18 10:36:05;;;;;;;5.67;4.37;;;13.90;98.00;;;;;;5099580;28;20485;-78
2023/04/18 10:38:37;;;;;;;5.43;4.00;;;14.00;98.10;;;;;;5099499;28;20462;-78
2023/04/18 10:41:33;;;;;;;6.00;4.50;;;14.10;98.30;;;;;;5116608;28;20420;-77
2023/04/18 10:44:17;;;;;;;6.10;4.60;;;14.20;98.10;;;;;;5052513;28;20443;-77
2023/04/18 10:47:31;;;;;;;6.10;4.80;;;14.20;98.10;;;;;;5116347;28;20415;-77
2023/04/18 10:50:02;;;;;;;6.10;5.50;;;14.30;97.90;;;;;;5098042;28;20500;-77
2023/04/18 10:52:34;;;;;;;6.17;5.10;;;14.30;97.90;;;;;;5097940;28;20470;-77
2023/04/18 10:55:10;;;;;;;6.70;5.17;;;14.30;98.10;;;;;;5097772;28;20444;-76
2023/04/18 10:57:42;;;;;;;7.03;6.27;;;14.40;97.80;;;;;;5116501;28;20411;-76
2023/04/18 11:00:13;;;;;;;7.40;6.10;;;14.40;98.00;;;;;;5097758;28;20818;-77
2023/04/18 11:02:48;;;;;;;6.20;5.60;;;14.50;98.00;;;;;;5097601;28;20478;-77
2023/04/18 11:05:22;;;;;;;8.10;7.30;;;14.60;98.10;;;;;;5097748;28;20845;-77
2023/04/18 11:07:51;;;;;;;12.47;8.20;;;14.60;98.10;;;;;;5097745;28;20454;-77
2023/04/18 11:10:23;;;;;;;8.73;7.53;;;14.60;98.00;;;;;;5097722;28;20463;-77
2023/04/18 11:12:52;;;;;;;7.93;6.63;;;14.50;98.00;;;;;;5097633;28;20471;-77
2023/04/18 11:15:23;;;;;;;7.73;7.00;;;14.50;98.10;;;;;;5097877;28;20456;-77
2023/04/18 11:17:59;;;;;;;8.70;7.53;;;14.50;98.10;;;;;;5097517;28;20431;-77
2023/04/18 11:20:28;;;;;;;9.00;8.10;;;14.50;98.00;;;;;;5114650;28;20450;-77
2023/04/18 11:22:58;;;;;;;9.50;8.00;;;14.50;98.10;;;;;;5097602;28;20455;-77
2023/04/18 11:25:30;;;;;;;8.83;7.73;;;14.50;98.10;;;;;;5097557;28;20454;-77
2023/04/18 11:28:00;;;;;;;11.93;8.70;;;14.50;98.20;;;;;;5097255;28;20435;-77
2023/04/18 11:30:35;;;;;;;10.43;9.43;;;14.50;98.20;;;;;;5097285;28;20520;-77
2023/04/18 11:33:06;;;;;;;10.07;9.07;;;14.50;98.30;;;;;;5115812;28;20483;-77
2023/04/18 11:35:37;;;;;;;10.47;9.50;;;14.50;98.20;;;;;;5097047;28;20443;-78
2023/04/18 11:38:06;;;;;;;9.83;8.83;;;14.50;98.20;;;;;;5097082;28;20440;-79
2023/04/18 11:40:36;;;;;;;10.57;8.87;;;14.50;98.20;;;;;;5115502;28;20443;-77
2023/04/18 11:43:07;;;;;;;8.87;7.97;;;14.50;98.20;;;;;;5096937;28;20540;-77
2023/04/18 11:45:35;;;;;;;10.60;8.90;;;14.60;98.30;;;;;;5096968;28;20507;-77
2023/04/18 11:48:03;;;;;;;10.70;8.60;;;14.60;98.20;;;;;;5096846;28;20496;-77
2023/04/18 11:50:46;;;;;;;9.47;8.57;;;14.60;98.20;;;;;;5115575;28;20559;-78
2023/04/18 11:53:14;;;;;;;9.83;8.83;;;14.50;98.20;;;;;;5096635;28;20558;-77
2023/04/18 11:55:54;;;;;;;14.47;12.37;;;14.50;98.20;;;;;;5096040;28;20987;-77
2023/04/18 11:58:31;;;;;;;10.00;9.00;;;14.60;98.20;;;;;;5115557;28;20419;-77
2023/04/18 12:01:00;;;;;;;9.70;8.70;;;14.60;98.20;;;;;;5096715;28;20458;-78
2023/04/18 12:04:08;;;;;;;8.53;7.73;;;14.60;98.20;;;;;;5096944;28;20834;-78
2023/04/18 12:06:46;;;;;;;8.77;7.87;;;14.60;98.20;;;;;;5096458;28;20538;-77
2023/04/18 12:09:15;;;;;;;9.73;8.50;;;14.50;98.10;;;;;;5114586;28;20435;-77
2023/04/18 12:11:57;;;;;;;10.17;8.27;;;14.50;98.20;;;;;;5096380;28;20447;-77
2023/04/18 12:14:25;;;;;;;8.70;7.80;;;14.40;98.10;;;;;;5096361;28;20447;-77
2023/04/18 12:16:53;;;;;;;11.03;8.13;;;14.40;98.20;;;;;;5096219;28;20981;-77
2023/04/18 12:19:26;;;;;;;9.13;8.23;;;14.40;98.30;;;;;;5096129;28;20475;-77
2023/04/18 12:21:56;;;;;;;9.30;7.93;;;14.40;98.30;;;;;;5114346;28;20834;-77
2023/04/18 12:24:25;;;;;;;8.70;7.13;;;14.40;98.10;;;;;;5114537;28;20447;-77
2023/04/18 12:26:56;;;;;;;7.43;6.70;;;14.40;98.10;;;;;;5114326;28;20437;-77
2023/04/18 12:29:24;;;;;;;8.70;7.47;;;14.40;98.10;;;;;;5096129;28;20827;-77
2023/04/18 12:31:52;;;;;;;8.30;6.90;;;14.40;98.10;;;;;;5095939;28;20990;-77
2023/04/18 12:34:21;;;;;;;9.30;7.80;;;14.40;98.20;;;;;;5096012;28;20473;-77
2023/04/18 12:36:49;;;;;;;8.40;7.60;;;14.50;98.30;;;;;;5096186;28;20962;-77
2023/04/18 12:39:17;;;;;;;9.60;7.10;;;14.50;98.30;;;;;;5095802;28;20523;-77
2023/04/18 12:41:46;;;;;;;7.30;6.47;;;14.50;98.20;;;;;;5095657;28;20443;-78
2023/04/18 12:44:18;;;;;;;7.03;6.30;;;14.50;98.10;;;;;;5114716;28;20419;-77
2023/04/18 12:46:46;;;;;;;7.30;6.20;;;14.50;98.10;;;;;;5095903;28;20818;-78
2023/04/18 12:49:14;;;;;;;9.17;6.80;;;14.40;98.00;;;;;;5095701;28;20451;-77
2023/04/18 12:51:43;;;;;;;6.33;5.73;;;14.50;98.00;;;;;;5095570;28;21045;-78
2023/04/18 12:54:11;;;;;;;6.20;5.60;;;14.50;98.00;;;;;;5095823;28;20446;-78
2023/04/18 12:56:40;;;;;;;7.20;6.23;;;14.50;98.00;;;;;;5095477;28;20524;-77